VEGT/GAU METAR and TAF weather

Enter ICAO airport designator
Station Type Date Time Source
VEGT METAR 2021/01/22 06:00 UTC NOAA

VEGT 220600Z 01004KT 2000 HZ SCT018 SCT100 19/12 Q1015 NOSIG


Station Type Date Time Source
VEGT Decoded METAR 2021/01/22 06:00 UTC NOAA

Gauhati, India (VEGT) 26-06N 091-35E 54M
Jan 22, 2021 - 01:00 AM EST / 2021.01.22 0600 UTC
Wind: from the N (010 degrees) at 5 MPH (4 KT):0
Visibility: 1 mile(s):0
Sky conditions: partly cloudy
Weather: haze
Temperature: 66 F (19 C)
Dew Point: 53 F (12 C)
Relative Humidity: 63%
Pressure (altimeter): 29.97 in. Hg (1015 hPa)
ob: VEGT 220600Z 01004KT 2000 HZ SCT018 SCT100 19/12 Q1015 NOSIG
cycle: 6

Station Type Date Time Source
VEGT TAF 2020/12/17 12:52 UTC NOAA

TAF VEGT 171100Z 1712/1818 03005KT 2000 BR SCT018 BKN100
BECMG 1713/1715 00000KT 1500 BR
BECMG 1800/1802 0800 FG FEW008
BECMG 1803/1805 03004KT 2000 BR SCT018 BKN100
BECMG 1806/1808 34008KT 3000 HZ FEW020
BECMG 1813/1815 00000KT 2000 BR FEW018 SCT100

Example: see airport list